Time;durP1;ratioP1;P1;durP2;ratioP2;P2;SDS_P1;SDS_P2;PMS_P1;PMS_P2;Temp;Humidity;BMP_temperature;BMP_pressure;BME280_temperature;BME280_humidity;BME280_pressure;Samples;Min_cycle;Max_cycle;Signal;HPM_P1;HPM_P2
2021/01/27 00:00:28;;;;;;;35.03;24.63;;;2.10;99.90;;;;;;6131647;23;20685;-82
2021/01/27 00:02:55;;;;;;;37.53;26.00;;;2.00;99.90;;;;;;6107080;23;20192;-82
2021/01/27 00:05:26;;;;;;;34.43;24.53;;;2.00;99.90;;;;;;6107206;23;20199;-82
2021/01/27 00:07:52;;;;;;;35.57;27.30;;;2.10;99.90;;;;;;6132131;23;20192;-82
2021/01/27 00:10:20;;;;;;;37.13;26.47;;;2.10;99.90;;;;;;6132361;23;20173;-82
2021/01/27 00:12:47;;;;;;;34.03;25.27;;;2.10;99.90;;;;;;6108268;23;20215;-82
2021/01/27 00:15:16;;;;;;;36.80;26.80;;;2.10;99.90;;;;;;6159460;23;20259;-82
2021/01/27 00:17:45;;;;;;;32.97;26.17;;;2.20;99.90;;;;;;6162854;23;20207;-82
2021/01/27 00:20:15;;;;;;;33.53;25.00;;;2.20;99.90;;;;;;6136422;23;20176;-82
2021/01/27 00:22:42;;;;;;;35.57;26.47;;;2.30;99.90;;;;;;6111796;23;20584;-82
2021/01/27 00:25:11;;;;;;;33.87;26.63;;;2.30;99.90;;;;;;6110657;23;20189;-82
2021/01/27 00:27:38;;;;;;;41.33;25.43;;;2.30;99.90;;;;;;6134818;23;20235;-82
2021/01/27 00:30:08;;;;;;;32.60;26.47;;;2.30;99.90;;;;;;6112406;23;20202;-82
2021/01/27 00:32:35;;;;;;;33.57;26.27;;;2.30;99.90;;;;;;6163211;23;20183;-82
2021/01/27 00:35:03;;;;;;;37.80;25.70;;;2.30;99.90;;;;;;6137219;23;20196;-82
2021/01/27 00:37:30;;;;;;;33.40;26.00;;;2.30;99.90;;;;;;6137964;23;20206;-82
2021/01/27 00:39:57;;;;;;;32.10;25.10;;;2.40;99.90;;;;;;6113181;23;20179;-82
2021/01/27 00:42:23;;;;;;;33.30;26.87;;;2.20;99.90;;;;;;6135816;23;20180;-82
2021/01/27 00:44:50;;;;;;;33.20;25.50;;;2.20;99.90;;;;;;6135149;23;20188;-82
2021/01/27 00:47:17;;;;;;;35.27;26.00;;;2.10;99.90;;;;;;6135601;23;20327;-82
2021/01/27 00:49:44;;;;;;;35.63;25.83;;;2.10;99.90;;;;;;6134438;23;20201;-82
2021/01/27 00:52:16;;;;;;;37.67;27.57;;;2.10;99.90;;;;;;6135344;23;20203;-82
2021/01/27 00:54:42;;;;;;;39.23;29.43;;;2.10;99.90;;;;;;6129081;23;20677;-82
2021/01/27 00:57:09;;;;;;;36.43;26.60;;;2.10;99.90;;;;;;6169057;23;20235;-82
2021/01/27 00:59:37;;;;;;;48.07;27.60;;;2.10;99.90;;;;;;6155484;23;20177;-82
2021/01/27 01:02:04;;;;;;;41.37;29.27;;;2.00;99.90;;;;;;6136292;23;20183;-84
2021/01/27 01:04:41;;;;;;;41.23;29.87;;;2.00;99.90;;;;;;6136593;23;20185;-82
2021/01/27 01:07:08;;;;;;;41.57;29.60;;;2.00;99.90;;;;;;6160235;23;20196;-84
2021/01/27 01:09:35;;;;;;;39.27;29.57;;;2.00;99.90;;;;;;6146172;23;20230;-83
2021/01/27 01:12:03;;;;;;;44.97;29.83;;;2.00;99.90;;;;;;6166955;23;20176;-84
2021/01/27 01:14:30;;;;;;;49.33;33.17;;;2.00;99.90;;;;;;6139681;23;20176;-83
2021/01/27 01:16:57;;;;;;;48.07;32.60;;;2.00;99.90;;;;;;6163758;23;20221;-83
2021/01/27 01:19:24;;;;;;;42.73;31.60;;;2.00;99.90;;;;;;6163258;23;20181;-84
2021/01/27 01:21:51;;;;;;;47.87;33.70;;;2.00;99.90;;;;;;6138099;23;20889;-82
2021/01/27 01:24:17;;;;;;;50.50;35.93;;;2.00;99.90;;;;;;6137314;23;20256;-83
2021/01/27 01:26:45;;;;;;;50.47;37.27;;;2.00;99.90;;;;;;6161125;23;20196;-83
2021/01/27 01:29:12;;;;;;;50.20;36.73;;;2.00;99.90;;;;;;6161362;23;20176;-83
2021/01/27 01:31:39;;;;;;;56.53;37.63;;;2.00;99.90;;;;;;6136095;23;20203;-84
2021/01/27 01:34:06;;;;;;;52.27;38.73;;;1.80;99.90;;;;;;6136313;23;20515;-82
2021/01/27 01:36:33;;;;;;;63.50;43.27;;;2.00;99.90;;;;;;6135291;23;20192;-81
2021/01/27 01:39:00;;;;;;;55.87;38.00;;;2.10;99.90;;;;;;6159994;23;20191;-83
2021/01/27 01:41:27;;;;;;;66.73;44.07;;;2.10;99.90;;;;;;6158378;23;20183;-82
2021/01/27 01:43:54;;;;;;;61.73;41.17;;;2.10;99.90;;;;;;6160705;23;20193;-82
2021/01/27 01:46:24;;;;;;;61.37;42.50;;;2.10;99.90;;;;;;6158517;23;20255;-82
2021/01/27 01:48:54;;;;;;;64.20;43.97;;;2.20;99.90;;;;;;6158658;23;20207;-82
2021/01/27 01:51:27;;;;;;;66.40;45.77;;;2.10;99.90;;;;;;6134785;23;20231;-83
2021/01/27 01:53:57;;;;;;;56.93;40.50;;;2.10;99.90;;;;;;6134083;23;20192;-82
2021/01/27 01:56:28;;;;;;;64.77;42.73;;;2.10;99.90;;;;;;6163272;23;20192;-82
2021/01/27 01:59:00;;;;;;;64.83;43.00;;;2.30;99.90;;;;;;6164928;23;20698;-82
2021/01/27 02:01:28;;;;;;;64.97;43.17;;;2.00;99.90;;;;;;6139365;23;20232;-84
2021/01/27 02:03:57;;;;;;;63.90;43.73;;;2.10;99.90;;;;;;6140212;23;20176;-83
2021/01/27 02:06:24;;;;;;;61.10;43.53;;;2.10;99.90;;;;;;6166409;23;20212;-82
2021/01/27 02:08:57;;;;;;;64.03;45.90;;;2.00;99.90;;;;;;6135764;23;20298;-83
2021/01/27 02:11:42;;;;;;;62.40;41.77;;;2.00;99.90;;;;;;6162026;23;20173;-82
2021/01/27 02:14:34;;;;;;;64.47;45.00;;;2.00;99.90;;;;;;6160037;23;20202;-83
2021/01/27 02:17:05;;;;;;;63.00;43.13;;;2.00;99.90;;;;;;6159998;23;20200;-82
2021/01/27 02:20:03;;;;;;;63.17;43.83;;;2.00;99.90;;;;;;6159463;23;20504;-82
2021/01/27 02:23:02;;;;;;;59.40;42.43;;;2.00;99.90;;;;;;6134703;23;20179;-83
2021/01/27 02:25:56;;;;;;;55.70;36.83;;;2.10;99.90;;;;;;6134855;23;20184;-82
2021/01/27 02:29:11;;;;;;;54.90;38.57;;;2.20;99.90;;;;;;6158140;23;20232;-82
2021/01/27 02:31:48;;;;;;;48.33;33.30;;;2.30;99.90;;;;;;5994234;23;20231;-82
2021/01/27 02:34:49;;;;;;;47.97;35.63;;;2.30;99.90;;;;;;6152857;23;20184;-82
2021/01/27 02:37:20;;;;;;;48.63;33.93;;;2.40;99.90;;;;;;6160956;23;20203;-82
2021/01/27 02:39:51;;;;;;;47.47;32.10;;;2.50;99.90;;;;;;6159577;23;20221;-82
2021/01/27 02:42:23;;;;;;;44.43;32.57;;;2.50;99.90;;;;;;6135407;23;20169;-82
2021/01/27 02:44:54;;;;;;;47.57;33.37;;;2.60;99.90;;;;;;6159644;23;20267;-82
2021/01/27 02:47:25;;;;;;;45.90;31.85;;;2.60;99.90;;;;;;6159208;23;20192;-82
2021/01/27 02:49:58;;;;;;;44.07;31.43;;;2.60;99.90;;;;;;6162792;23;20168;-82
2021/01/27 02:52:31;;;;;;;45.70;34.33;;;2.60;99.90;;;;;;6135485;23;20176;-82
2021/01/27 02:55:05;;;;;;;48.43;33.90;;;2.60;99.90;;;;;;6162723;23;20184;-82
2021/01/27 02:57:35;;;;;;;49.17;32.77;;;2.60;99.90;;;;;;6176244;23;20179;-84
2021/01/27 03:00:08;;;;;;;47.77;34.43;;;2.60;99.90;;;;;;6165170;23;20209;-81
2021/01/27 03:02:40;;;;;;;45.33;31.40;;;2.60;99.90;;;;;;6132534;23;20168;-81
2021/01/27 03:05:13;;;;;;;42.13;31.83;;;2.50;99.90;;;;;;6158304;23;20196;-82
2021/01/27 03:07:43;;;;;;;45.43;33.07;;;2.50;99.90;;;;;;6134366;23;20201;-82
2021/01/27 03:10:16;;;;;;;45.90;31.27;;;2.60;99.90;;;;;;6135063;23;20242;-82
2021/01/27 03:12:45;;;;;;;39.90;31.73;;;2.60;99.90;;;;;;6159056;23;20165;-82
2021/01/27 03:15:13;;;;;;;39.33;30.17;;;2.70;99.90;;;;;;6160172;23;20188;-82
2021/01/27 03:17:42;;;;;;;39.03;29.10;;;2.50;99.90;;;;;;6160889;23;20200;-82
2021/01/27 03:20:16;;;;;;;38.97;30.77;;;2.50;99.90;;;;;;6134718;23;20175;-82
2021/01/27 03:22:46;;;;;;;39.53;30.73;;;2.50;99.90;;;;;;6159461;23;20168;-83
2021/01/27 03:25:20;;;;;;;39.07;28.83;;;2.50;99.90;;;;;;6160654;23;20530;-82
2021/01/27 03:27:57;;;;;;;37.97;28.00;;;2.60;99.90;;;;;;6159049;23;20207;-82
2021/01/27 03:30:25;;;;;;;34.93;27.53;;;2.50;99.90;;;;;;6158821;23;20211;-82
2021/01/27 03:33:06;;;;;;;33.23;25.97;;;2.60;99.90;;;;;;6171289;23;20216;-82
2021/01/27 03:35:39;;;;;;;36.60;25.57;;;2.60;99.90;;;;;;6145815;23;20179;-83
2021/01/27 03:38:12;;;;;;;40.00;27.20;;;2.60;99.90;;;;;;6149166;23;20151;-84
2021/01/27 03:40:44;;;;;;;35.40;27.07;;;2.70;99.90;;;;;;6181509;23;20172;-85
2021/01/27 03:43:38;;;;;;;32.43;25.53;;;2.60;99.90;;;;;;6164234;23;20168;-82
2021/01/27 03:46:13;;;;;;;31.70;25.43;;;2.50;99.90;;;;;;6130572;23;20204;-82
2021/01/27 03:48:44;;;;;;;35.43;25.63;;;2.60;99.90;;;;;;6155825;23;20168;-83
2021/01/27 03:51:13;;;;;;;29.93;22.93;;;2.60;99.90;;;;;;6131799;23;20196;-82
2021/01/27 03:53:41;;;;;;;32.13;24.73;;;2.80;99.90;;;;;;6132232;23;20190;-82
2021/01/27 03:56:16;;;;;;;30.47;24.20;;;2.70;99.90;;;;;;6159446;23;20188;-82
2021/01/27 03:58:46;;;;;;;37.07;24.63;;;2.70;99.90;;;;;;6156913;23;20156;-82
2021/01/27 04:01:17;;;;;;;31.67;22.43;;;2.70;99.90;;;;;;6156773;23;20231;-82
2021/01/27 04:03:45;;;;;;;32.87;21.97;;;2.70;99.90;;;;;;6132230;23;20161;-81
2021/01/27 04:06:13;;;;;;;35.77;25.03;;;2.60;99.90;;;;;;6132523;23;20657;-82
2021/01/27 04:08:40;;;;;;;32.30;25.13;;;2.60;99.90;;;;;;6132495;23;20177;-81
2021/01/27 04:11:09;;;;;;;32.87;24.30;;;2.70;99.90;;;;;;6134838;23;20710;-82
2021/01/27 04:13:36;;;;;;;35.47;25.90;;;2.80;99.90;;;;;;6161832;23;20191;-84
2021/01/27 04:16:03;;;;;;;35.23;24.40;;;2.70;99.90;;;;;;6158580;23;20189;-82
2021/01/27 04:18:32;;;;;;;30.37;24.37;;;2.70;99.90;;;;;;6135697;23;20173;-82
2021/01/27 04:20:58;;;;;;;31.50;23.90;;;2.80;99.90;;;;;;6134351;23;20177;-83
2021/01/27 04:23:26;;;;;;;32.63;23.93;;;2.60;99.90;;;;;;6136387;23;20181;-82
2021/01/27 04:25:54;;;;;;;30.33;22.27;;;2.60;99.90;;;;;;6161227;23;20203;-82
2021/01/27 04:28:21;;;;;;;28.10;22.40;;;2.70;99.90;;;;;;6136092;23;20526;-81
2021/01/27 04:30:48;;;;;;;29.57;20.67;;;2.60;99.90;;;;;;6173206;23;20164;-83
2021/01/27 04:33:15;;;;;;;25.07;20.63;;;2.70;99.90;;;;;;6157784;23;20161;-85
2021/01/27 04:35:42;;;;;;;30.38;21.20;;;2.60;99.90;;;;;;6160569;23;20165;-82
2021/01/27 04:38:09;;;;;;;23.83;19.57;;;2.60;99.90;;;;;;6133513;23;20176;-82
2021/01/27 04:40:39;;;;;;;26.03;19.00;;;2.60;99.90;;;;;;6157663;23;20512;-82
2021/01/27 04:43:22;;;;;;;25.27;19.93;;;2.60;99.90;;;;;;6132748;23;20168;-82
2021/01/27 04:45:56;;;;;;;26.53;19.03;;;2.60;99.90;;;;;;6132716;23;20639;-82
2021/01/27 04:48:31;;;;;;;24.23;18.83;;;2.50;99.90;;;;;;6156148;23;20689;-83
2021/01/27 04:51:02;;;;;;;25.33;19.03;;;2.60;99.90;;;;;;6157230;23;20168;-83
2021/01/27 04:53:38;;;;;;;22.60;19.33;;;2.60;99.90;;;;;;6156434;23;20191;-82
2021/01/27 04:56:34;;;;;;;29.57;21.10;;;2.50;99.90;;;;;;6131688;23;20602;-81
2021/01/27 04:59:11;;;;;;;27.00;19.33;;;2.50;99.90;;;;;;6154349;23;20520;-82
2021/01/27 05:01:55;;;;;;;27.70;20.33;;;2.50;99.90;;;;;;6165105;23;20167;-82
2021/01/27 05:04:41;;;;;;;24.47;19.17;;;2.50;99.90;;;;;;6132413;23;20516;-81
2021/01/27 05:07:12;;;;;;;25.93;20.07;;;2.50;99.90;;;;;;6157484;23;20207;-82
2021/01/27 05:09:44;;;;;;;24.07;19.03;;;2.40;99.90;;;;;;6157365;23;20187;-83
2021/01/27 05:12:14;;;;;;;31.27;19.63;;;2.40;99.90;;;;;;6160465;23;20161;-81
2021/01/27 05:14:44;;;;;;;28.02;20.27;;;2.60;99.90;;;;;;6159746;23;20599;-82
2021/01/27 05:17:14;;;;;;;25.20;18.90;;;2.40;99.90;;;;;;6134823;23;20193;-83
2021/01/27 05:19:43;;;;;;;25.30;18.43;;;2.40;99.90;;;;;;6135316;23;20196;-81
2021/01/27 05:22:13;;;;;;;23.93;19.73;;;2.50;99.90;;;;;;6135382;23;20184;-84
2021/01/27 05:24:40;;;;;;;24.07;17.77;;;2.50;99.90;;;;;;6163786;23;20191;-82
2021/01/27 05:27:09;;;;;;;27.37;19.90;;;2.50;99.90;;;;;;6136328;23;20199;-82
2021/01/27 05:29:40;;;;;;;22.90;17.60;;;2.40;99.90;;;;;;6160039;23;20544;-81
2021/01/27 05:32:10;;;;;;;23.40;16.53;;;2.50;99.90;;;;;;6160750;23;20221;-82
2021/01/27 05:34:39;;;;;;;24.80;18.10;;;2.50;99.90;;;;;;6159758;23;20348;-83
2021/01/27 05:37:08;;;;;;;24.43;17.73;;;2.50;99.90;;;;;;6134600;23;20235;-82
2021/01/27 05:39:37;;;;;;;23.03;16.50;;;2.50;99.90;;;;;;6134171;23;20181;-83
2021/01/27 05:42:20;;;;;;;23.67;16.57;;;2.70;99.90;;;;;;6158692;23;20180;-82
2021/01/27 05:44:47;;;;;;;22.23;17.30;;;2.80;99.90;;;;;;6161051;23;20607;-82
2021/01/27 05:47:39;;;;;;;25.60;17.47;;;2.60;99.90;;;;;;6159484;23;20192;-82
2021/01/27 05:50:28;;;;;;;21.70;15.63;;;2.60;99.90;;;;;;6157687;23;20738;-81
2021/01/27 05:52:55;;;;;;;26.27;17.53;;;2.60;99.90;;;;;;6160120;23;20160;-81
2021/01/27 05:55:22;;;;;;;26.03;18.03;;;2.50;99.90;;;;;;6113416;23;20235;-82
2021/01/27 05:58:07;;;;;;;20.30;16.57;;;2.50;99.90;;;;;;6148710;23;20740;-83
2021/01/27 06:00:35;;;;;;;22.43;18.50;;;2.50;99.90;;;;;;6174550;23;20164;-83
2021/01/27 06:03:02;;;;;;;23.17;17.47;;;2.50;99.90;;;;;;6175864;23;20177;-82
2021/01/27 06:05:52;;;;;;;22.33;17.43;;;2.50;99.90;;;;;;6178859;23;20227;-83
2021/01/27 06:08:21;;;;;;;21.20;15.97;;;2.50;99.90;;;;;;6153612;23;20186;-83
2021/01/27 06:10:50;;;;;;;19.57;16.73;;;2.50;99.90;;;;;;6129613;23;20606;-82
2021/01/27 06:13:26;;;;;;;19.63;14.50;;;2.50;99.90;;;;;;6129773;23;20177;-85
2021/01/27 06:15:54;;;;;;;24.53;17.20;;;2.70;99.90;;;;;;6153780;23;20188;-82
2021/01/27 06:18:27;;;;;;;21.67;16.60;;;2.60;99.90;;;;;;6179149;23;20200;-83
2021/01/27 06:21:25;;;;;;;22.87;15.97;;;2.70;99.90;;;;;;6179835;23;20141;-82
2021/01/27 06:24:24;;;;;;;21.47;15.97;;;2.70;99.90;;;;;;6152963;23;20191;-84
2021/01/27 06:27:17;;;;;;;19.67;14.53;;;2.60;99.90;;;;;;6118934;23;20220;-84
2021/01/27 06:30:15;;;;;;;18.63;13.60;;;2.70;99.90;;;;;;6179166;23;20164;-85
2021/01/27 06:33:18;;;;;;;20.17;14.00;;;2.70;99.90;;;;;;6154115;23;20192;-84
2021/01/27 06:35:57;;;;;;;17.70;13.83;;;2.70;99.90;;;;;;6161194;23;20172;-83
2021/01/27 06:38:41;;;;;;;17.73;13.73;;;2.70;99.90;;;;;;6137770;23;20240;-82
2021/01/27 06:41:30;;;;;;;23.00;15.80;;;2.60;99.90;;;;;;6162844;23;20163;-82
2021/01/27 06:44:21;;;;;;;23.87;14.90;;;2.50;99.90;;;;;;6111689;23;20161;-83
2021/01/27 06:47:06;;;;;;;18.87;13.83;;;2.50;99.90;;;;;;6140949;23;20665;-82
2021/01/27 06:50:23;;;;;;;19.43;13.70;;;2.50;99.90;;;;;;6131364;23;20262;-81
2021/01/27 06:53:26;;;;;;;15.40;11.70;;;2.40;99.90;;;;;;6155460;23;20166;-82
2021/01/27 06:56:32;;;;;;;17.40;13.17;;;2.50;99.90;;;;;;6117177;23;20203;-82
2021/01/27 06:59:45;;;;;;;17.23;12.10;;;2.40;99.90;;;;;;6124298;23;20186;-82
2021/01/27 07:03:00;;;;;;;15.90;12.63;;;2.50;99.90;;;;;;6145261;23;20629;-81
2021/01/27 07:06:28;;;;;;;17.30;12.23;;;2.50;99.90;;;;;;6112577;23;20208;-82
2021/01/27 07:09:37;;;;;;;14.50;11.23;;;2.40;99.90;;;;;;6071267;23;20203;-82
2021/01/27 07:12:13;;;;;;;16.73;11.53;;;2.40;99.90;;;;;;6134383;23;20184;-83
2021/01/27 07:15:05;;;;;;;16.57;12.07;;;2.40;99.90;;;;;;6120862;23;20162;-83
2021/01/27 07:17:59;;;;;;;13.33;10.23;;;2.40;99.90;;;;;;6141429;23;20197;-82
2021/01/27 07:20:30;;;;;;;13.93;10.80;;;2.40;99.90;;;;;;6114888;23;20240;-82
2021/01/27 07:23:04;;;;;;;14.33;10.80;;;2.50;99.90;;;;;;6154881;23;20171;-85
2021/01/27 07:25:52;;;;;;;12.38;10.18;;;2.30;99.90;;;;;;6126977;23;20199;-83
2021/01/27 07:28:24;;;;;;;12.77;11.23;;;2.30;99.90;;;;;;6134768;23;20172;-81
2021/01/27 07:31:00;;;;;;;16.37;12.53;;;2.30;99.90;;;;;;6132784;23;20680;-82
2021/01/27 07:33:36;;;;;;;16.80;13.47;;;2.30;99.90;;;;;;6145798;23;20168;-83
2021/01/27 07:36:13;;;;;;;16.97;13.97;;;2.30;99.90;;;;;;6113066;23;20203;-82
2021/01/27 07:38:44;;;;;;;16.57;12.80;;;2.40;99.90;;;;;;6139201;23;20177;-84
2021/01/27 07:41:17;;;;;;;17.80;15.23;;;2.30;99.90;;;;;;6169986;23;20223;-82
2021/01/27 07:43:51;;;;;;;16.37;13.20;;;2.30;99.90;;;;;;6144829;23;20601;-83
2021/01/27 07:46:28;;;;;;;16.93;14.37;;;2.20;99.90;;;;;;6175834;23;20207;-82
2021/01/27 07:49:01;;;;;;;19.37;13.97;;;2.10;99.90;;;;;;6147010;23;20163;-84
2021/01/27 07:51:56;;;;;;;26.57;15.00;;;2.00;99.90;;;;;;6116394;23;20208;-81
2021/01/27 07:54:26;;;;;;;19.03;15.00;;;2.00;99.90;;;;;;6126955;23;20191;-82
2021/01/27 07:57:00;;;;;;;20.07;14.43;;;2.10;99.90;;;;;;6138320;23;20203;-82
2021/01/27 07:59:35;;;;;;;20.07;14.97;;;1.90;99.90;;;;;;6162880;23;20654;-84
2021/01/27 08:02:09;;;;;;;16.77;14.53;;;2.00;99.90;;;;;;6138517;23;20172;-83
2021/01/27 08:04:41;;;;;;;21.97;16.40;;;2.00;99.90;;;;;;6140817;23;20240;-82
2021/01/27 08:10:27;;;;;;;20.47;15.73;;;1.90;99.90;;;;;;6162345;23;20230;-83
2021/01/27 08:35:06;;;;;;;15.33;11.47;;;2.40;99.90;;;;;;6161900;23;20172;-81
2021/01/27 08:37:36;;;;;;;16.27;11.27;;;2.30;99.90;;;;;;6128971;23;20208;-55
2021/01/27 08:40:11;;;;;;;14.50;11.30;;;2.50;99.90;;;;;;6122541;23;20185;-57
2021/01/27 08:42:41;;;;;;;15.57;12.43;;;2.40;99.90;;;;;;6123565;23;20168;-58
2021/01/27 08:45:15;;;;;;;13.77;10.87;;;2.30;99.90;;;;;;6123158;23;20176;-58
2021/01/27 08:48:06;;;;;;;13.60;11.73;;;2.40;99.90;;;;;;6093125;23;20162;-59
2021/01/27 08:50:41;;;;;;;12.57;11.23;;;2.40;99.90;;;;;;6139074;23;20657;-59
2021/01/27 08:53:11;;;;;;;13.83;12.33;;;2.60;99.90;;;;;;6153441;23;20157;-58
2021/01/27 08:55:54;;;;;;;18.60;12.20;;;2.40;99.90;;;;;;6151831;23;20203;-59
2021/01/27 08:58:25;;;;;;;17.13;12.40;;;2.40;99.90;;;;;;6148165;23;20179;-60
2021/01/27 09:00:54;;;;;;;12.87;11.33;;;2.50;99.90;;;;;;6150793;23;20200;-59
2021/01/27 09:03:58;;;;;;;16.30;12.33;;;2.90;99.90;;;;;;6151682;23;20179;-60
2021/01/27 09:06:41;;;;;;;13.83;11.87;;;2.90;99.90;;;;;;6149400;23;20195;-60
2021/01/27 09:09:26;;;;;;;15.43;11.40;;;2.80;99.90;;;;;;6148309;23;20216;-59
2021/01/27 09:12:25;;;;;;;13.53;11.40;;;2.90;99.90;;;;;;6149780;23;20635;-61
2021/01/27 09:15:24;;;;;;;13.80;12.30;;;3.00;99.90;;;;;;6150629;23;20251;-58
2021/01/27 09:18:14;;;;;;;12.83;11.30;;;3.00;99.90;;;;;;6151105;23;20160;-60
2021/01/27 09:21:24;;;;;;;16.03;10.87;;;2.90;99.90;;;;;;6143201;23;20196;-81
2021/01/27 09:24:41;;;;;;;12.67;11.33;;;2.90;99.90;;;;;;6154343;23;20172;-85
2021/01/27 09:27:30;;;;;;;12.17;10.93;;;2.60;99.90;;;;;;6149437;23;20601;-58
2021/01/27 09:30:18;;;;;;;15.30;12.27;;;2.70;99.90;;;;;;6150743;23;20177;-58
2021/01/27 09:33:11;;;;;;;13.53;12.17;;;2.80;99.90;;;;;;6151344;23;20232;-57
2021/01/27 09:36:07;;;;;;;15.03;12.20;;;2.50;99.90;;;;;;6150508;23;20513;-56
2021/01/27 09:38:53;;;;;;;15.70;12.07;;;2.50;99.90;;;;;;6151185;23;20195;-55
2021/01/27 09:41:43;;;;;;;15.10;11.67;;;2.80;99.90;;;;;;6150352;23;20179;-56
2021/01/27 09:44:35;;;;;;;14.73;13.27;;;2.40;99.90;;;;;;6151298;23;20240;-56
2021/01/27 09:47:21;;;;;;;12.23;10.70;;;2.50;99.90;;;;;;6150744;23;20181;-56
2021/01/27 09:50:07;;;;;;;16.40;12.93;;;2.60;99.90;;;;;;6150330;23;20190;-57
2021/01/27 09:52:55;;;;;;;16.70;11.83;;;2.50;99.90;;;;;;6150745;23;20165;-57
2021/01/27 09:55:41;;;;;;;13.60;11.83;;;2.60;99.90;;;;;;6150459;23;20189;-58
2021/01/27 09:58:29;;;;;;;15.90;11.13;;;2.60;99.90;;;;;;6150315;23;20244;-57
2021/01/27 10:01:18;;;;;;;13.77;11.67;;;2.50;99.90;;;;;;6150807;23;20168;-56
2021/01/27 10:04:08;;;;;;;12.57;11.27;;;2.40;99.90;;;;;;6150725;23;20164;-57
2021/01/27 10:06:56;;;;;;;12.33;11.03;;;2.50;99.90;;;;;;6150966;23;20235;-58
2021/01/27 10:09:50;;;;;;;14.63;12.00;;;2.60;99.90;;;;;;6149909;23;20179;-57
2021/01/27 10:12:36;;;;;;;15.47;11.10;;;2.80;99.90;;;;;;6150752;23;20171;-57
2021/01/27 10:15:30;;;;;;;13.73;11.00;;;2.90;99.90;;;;;;6150102;23;20271;-56
2021/01/27 10:18:22;;;;;;;14.53;11.20;;;2.80;99.90;;;;;;6150770;23;20173;-57
2021/01/27 10:21:10;;;;;;;11.00;9.87;;;3.00;99.90;;;;;;6150718;23;20501;-56
2021/01/27 10:23:55;;;;;;;11.27;10.07;;;3.10;99.90;;;;;;6151222;23;20161;-56
2021/01/27 10:26:41;;;;;;;10.73;9.67;;;2.90;99.90;;;;;;6149943;23;20551;-58
2021/01/27 10:29:35;;;;;;;15.67;10.23;;;2.80;99.90;;;;;;6151039;23;20164;-58
2021/01/27 10:32:26;;;;;;;10.63;9.60;;;3.00;99.90;;;;;;6151430;23;20256;-57
2021/01/27 10:35:30;;;;;;;11.50;10.30;;;3.00;99.90;;;;;;6150393;23;20583;-57
2021/01/27 10:38:18;;;;;;;10.17;9.13;;;3.10;99.90;;;;;;6151081;23;20237;-57
2021/01/27 10:41:12;;;;;;;8.97;7.63;;;3.20;99.90;;;;;;6150898;23;20177;-57
2021/01/27 10:44:18;;;;;;;9.57;7.43;;;3.10;99.90;;;;;;6150897;23;20179;-56
2021/01/27 10:47:24;;;;;;;7.33;6.63;;;3.00;99.90;;;;;;6150451;23;20210;-56
2021/01/27 10:50:12;;;;;;;8.20;7.37;;;3.00;99.90;;;;;;6150938;23;20184;-56
2021/01/27 10:52:58;;;;;;;7.27;6.57;;;2.80;99.90;;;;;;6150828;23;20175;-57
2021/01/27 10:55:47;;;;;;;6.90;6.03;;;2.80;99.90;;;;;;6150679;23;20196;-58
2021/01/27 10:58:32;;;;;;;9.70;7.00;;;2.80;99.90;;;;;;6150450;23;20201;-57
2021/01/27 11:01:17;;;;;;;16.57;6.90;;;2.70;99.90;;;;;;6150710;23;20449;-57
2021/01/27 11:04:02;;;;;;;10.13;7.10;;;2.70;99.90;;;;;;6151265;23;20484;-57
2021/01/27 11:06:48;;;;;;;7.47;6.77;;;2.60;99.90;;;;;;6149768;23;20200;-57
2021/01/27 11:09:34;;;;;;;9.80;7.50;;;2.60;99.90;;;;;;6149881;23;20164;-58
2021/01/27 11:12:41;;;;;;;9.13;6.33;;;2.70;99.90;;;;;;6150576;23;20296;-57
2021/01/27 11:15:44;;;;;;;7.73;6.83;;;2.90;99.90;;;;;;6149393;23;20202;-57
2021/01/27 11:18:48;;;;;;;8.90;7.23;;;2.90;99.90;;;;;;6149800;23;20617;-57
2021/01/27 11:21:53;;;;;;;7.83;6.83;;;2.90;99.90;;;;;;6149020;23;20210;-58
2021/01/27 11:24:57;;;;;;;7.60;6.70;;;2.70;99.90;;;;;;6149370;23;20551;-58
2021/01/27 11:28:00;;;;;;;7.57;6.80;;;2.80;99.90;;;;;;6150228;23;20263;-57
2021/01/27 11:31:11;;;;;;;9.67;8.57;;;2.40;99.90;;;;;;6120971;23;20161;-57
2021/01/27 11:34:14;;;;;;;8.20;6.80;;;2.10;99.90;;;;;;6125067;23;20284;-56
2021/01/27 11:37:19;;;;;;;9.83;7.93;;;1.90;99.90;;;;;;6123877;23;20665;-55
2021/01/27 11:40:26;;;;;;;8.20;7.50;;;1.80;99.90;;;;;;6098784;23;20208;-56
2021/01/27 11:43:30;;;;;;;9.27;8.17;;;1.80;99.90;;;;;;6095875;23;20221;-57
2021/01/27 11:46:34;;;;;;;10.03;8.90;;;1.70;99.90;;;;;;6095373;23;20654;-55
2021/01/27 11:49:39;;;;;;;8.77;7.90;;;1.60;99.90;;;;;;6095324;23;20285;-56
2021/01/27 11:52:44;;;;;;;9.37;7.93;;;1.70;99.90;;;;;;6093394;23;20176;-55
2021/01/27 11:55:48;;;;;;;9.27;8.33;;;1.70;99.90;;;;;;6095165;23;20312;-56
2021/01/27 11:58:52;;;;;;;10.87;7.20;;;1.90;99.90;;;;;;6095180;23;20590;-57
2021/01/27 12:01:56;;;;;;;8.47;7.30;;;2.10;99.90;;;;;;6095541;23;20209;-57
2021/01/27 12:05:00;;;;;;;8.70;7.90;;;2.20;99.90;;;;;;6095190;23;20205;-56
2021/01/27 12:08:05;;;;;;;9.17;7.70;;;2.40;99.90;;;;;;6095186;23;20220;-57
2021/01/27 12:11:09;;;;;;;8.73;7.83;;;2.20;99.90;;;;;;6095069;23;20438;-58
2021/01/27 12:14:13;;;;;;;8.57;7.70;;;2.10;99.90;;;;;;6095287;23;20173;-58
2021/01/27 12:17:18;;;;;;;8.03;7.23;;;2.10;99.90;;;;;;6095385;23;20169;-57
2021/01/27 12:20:22;;;;;;;7.00;6.37;;;2.20;99.90;;;;;;6094472;23;20280;-54
2021/01/27 12:23:26;;;;;;;8.00;7.20;;;2.30;99.90;;;;;;6077417;23;20173;-56
2021/01/27 12:26:30;;;;;;;6.87;6.17;;;2.40;99.90;;;;;;6094720;23;20525;-56
2021/01/27 12:29:35;;;;;;;7.10;6.50;;;2.40;99.90;;;;;;6094580;23;20248;-55
2021/01/27 12:32:39;;;;;;;7.50;6.50;;;2.30;99.90;;;;;;6095629;23;20678;-55
2021/01/27 12:35:43;;;;;;;7.90;5.83;;;2.40;99.90;;;;;;6094962;23;20501;-56
2021/01/27 12:38:48;;;;;;;5.93;5.33;;;2.40;99.90;;;;;;6095042;23;20205;-54
2021/01/27 12:41:52;;;;;;;6.10;5.50;;;2.50;99.90;;;;;;6077470;23;20618;-57
2021/01/27 12:44:56;;;;;;;6.97;6.00;;;2.40;99.90;;;;;;6094074;23;20610;-56
2021/01/27 12:48:00;;;;;;;6.00;5.10;;;2.40;99.90;;;;;;6094581;23;20204;-56
2021/01/27 12:51:04;;;;;;;6.47;5.90;;;2.40;99.90;;;;;;6094498;23;20175;-57
2021/01/27 12:54:09;;;;;;;5.80;5.00;;;2.60;99.90;;;;;;6094377;23;20172;-57
2021/01/27 12:57:13;;;;;;;6.40;5.63;;;2.60;99.90;;;;;;6094931;23;20177;-57
2021/01/27 13:00:21;;;;;;;5.07;4.67;;;2.40;99.90;;;;;;6094377;23;20557;-56
2021/01/27 13:03:25;;;;;;;6.73;6.13;;;2.40;99.90;;;;;;6094745;23;20296;-57
2021/01/27 13:06:29;;;;;;;6.40;5.80;;;2.40;99.90;;;;;;6094939;23;20695;-56
2021/01/27 13:09:34;;;;;;;5.93;5.33;;;2.30;99.90;;;;;;6094701;23;20303;-56
2021/01/27 13:12:39;;;;;;;6.87;6.27;;;2.30;99.90;;;;;;6094938;23;20170;-58
2021/01/27 13:15:43;;;;;;;6.27;5.77;;;2.40;99.90;;;;;;6094990;23;20165;-54
2021/01/27 13:18:48;;;;;;;6.70;6.10;;;2.40;99.90;;;;;;6094823;23;20275;-56
2021/01/27 13:21:52;;;;;;;7.27;6.57;;;2.40;99.90;;;;;;6095090;23;20173;-58
2021/01/27 13:24:57;;;;;;;6.60;6.00;;;2.50;99.90;;;;;;6095100;23;20172;-58
2021/01/27 13:28:01;;;;;;;6.53;6.03;;;2.70;99.90;;;;;;6095401;23;20563;-57
2021/01/27 13:31:05;;;;;;;8.40;6.50;;;2.60;99.90;;;;;;6065973;23;20169;-57
2021/01/27 13:34:09;;;;;;;7.23;6.57;;;2.80;99.90;;;;;;6066062;23;20172;-57
2021/01/27 13:37:15;;;;;;;6.57;5.57;;;2.80;99.90;;;;;;6065940;23;20165;-56
2021/01/27 13:40:40;;;;;;;6.27;5.77;;;2.90;99.90;;;;;;6075411;23;20237;-56
2021/01/27 13:43:43;;;;;;;5.63;5.20;;;2.80;99.90;;;;;;6065944;23;20652;-58
2021/01/27 13:46:47;;;;;;;7.17;6.47;;;2.80;99.90;;;;;;6066215;23;20198;-58
2021/01/27 13:49:51;;;;;;;7.00;6.10;;;2.80;99.90;;;;;;6065413;23;20197;-57
2021/01/27 13:52:55;;;;;;;6.97;6.37;;;2.80;99.90;;;;;;6066006;23;20197;-57
2021/01/27 13:56:00;;;;;;;6.93;6.30;;;2.70;99.90;;;;;;6063597;23;20254;-57
2021/01/27 13:59:04;;;;;;;6.57;5.97;;;2.80;99.90;;;;;;6064778;23;20249;-57
2021/01/27 14:02:08;;;;;;;5.77;5.20;;;2.90;99.90;;;;;;6065043;23;20170;-58
2021/01/27 14:05:19;;;;;;;6.60;5.90;;;3.00;99.90;;;;;;6065219;23;20219;-56
2021/01/27 14:08:22;;;;;;;6.77;6.03;;;3.10;99.90;;;;;;6065016;23;20190;-58
2021/01/27 14:11:27;;;;;;;6.37;5.80;;;3.10;99.90;;;;;;6064880;23;20612;-56
2021/01/27 14:14:31;;;;;;;6.63;6.13;;;3.10;99.90;;;;;;6065022;23;20178;-58
2021/01/27 14:17:35;;;;;;;5.53;5.03;;;3.10;99.90;;;;;;6064907;23;20695;-57
2021/01/27 14:20:38;;;;;;;5.97;5.47;;;2.90;99.90;;;;;;6062888;23;20682;-57
2021/01/27 14:23:42;;;;;;;7.10;5.97;;;2.80;99.90;;;;;;6065236;23;20176;-57
2021/01/27 14:26:47;;;;;;;7.83;7.03;;;2.70;99.90;;;;;;6065091;23;20247;-57
2021/01/27 14:29:51;;;;;;;7.10;6.40;;;2.70;99.90;;;;;;6081908;23;20549;-58